Time,TemperatureF,DewpointF,PressureIn,WindDirection,WindDirectionDegrees,WindSpeedMPH,WindSpeedGustMPH,Humidity,HourlyPrecipIn,Conditions,Clouds,dailyrainin,SolarRadiationWatts/m^2,SoftwareType,DateUTC
2013-03-04 00:01:00,3.0,-1.0,-100.00,NW,313,0.0,2.0,84,0.00,,,0.00,0.000000,,2013-03-04 06:01:00,
2013-03-04 00:11:00,3.0,-1.0,-100.00,NW,313,0.0,2.0,84,0.00,,,0.00,0.000000,,2013-03-04 06:11:00,
2013-03-04 00:32:00,0.0,-4.0,-100.00,WNW,290,1.0,2.0,83,0.00,,,0.00,0.000000,,2013-03-04 06:32:00,
2013-03-04 00:42:00,0.0,-4.0,-100.00,WNW,290,1.0,2.0,83,0.00,,,0.00,0.000000,,2013-03-04 06:42:00,
2013-03-04 00:52:00,0.0,-4.0,-100.00,WNW,290,1.0,2.0,83,0.00,,,0.00,0.000000,,2013-03-04 06:52:00,
2013-03-04 01:01:00,0.0,-4.0,-100.00,WNW,290,1.0,2.0,83,0.00,,,0.00,0.000000,,2013-03-04 07:01:00,
2013-03-04 01:11:00,0.0,-4.0,-100.00,WNW,290,1.0,2.0,83,0.00,,,0.00,0.000000,,2013-03-04 07:11:00,
2013-03-04 01:32:00,-3.0,-7.0,-100.00,West,279,1.0,3.0,82,0.00,,,0.00,0.000000,,2013-03-04 07:32:00,
2013-03-04 01:42:00,-3.0,-7.0,-100.00,West,279,1.0,3.0,82,0.00,,,0.00,0.000000,,2013-03-04 07:42:00,
2013-03-04 01:52:00,-3.0,-7.0,-100.00,West,279,1.0,3.0,82,0.00,,,0.00,0.000000,,2013-03-04 07:52:00,
2013-03-04 02:02:00,-3.0,-7.0,-100.00,West,279,1.0,3.0,82,0.00,,,0.00,0.000000,,2013-03-04 08:02:00,
2013-03-04 02:11:00,-3.0,-7.0,-100.00,West,279,1.0,3.0,82,0.00,,,0.00,0.000000,,2013-03-04 08:11:00,
2013-03-04 02:42:00,-4.0,-9.0,-100.00,WNW,285,1.0,2.0,80,0.00,,,0.00,0.000000,,2013-03-04 08:42:00,
2013-03-04 02:52:00,-4.0,-9.0,-100.00,WNW,285,1.0,2.0,80,0.00,,,0.00,0.000000,,2013-03-04 08:52:00,
2013-03-04 03:01:00,-4.0,-9.0,-100.00,WNW,285,1.0,2.0,80,0.00,,,0.00,0.000000,,2013-03-04 09:01:00,
2013-03-04 03:11:00,-4.0,-9.0,-100.00,WNW,285,1.0,2.0,80,0.00,,,0.00,0.000000,,2013-03-04 09:11:00,
2013-03-04 03:32:00,-6.0,-11.0,-100.00,WNW,286,1.0,2.0,78,0.00,,,0.00,0.000000,,2013-03-04 09:32:00,
2013-03-04 03:42:00,-6.0,-11.0,-100.00,WNW,286,1.0,2.0,78,0.00,,,0.00,0.000000,,2013-03-04 09:42:00,
2013-03-04 03:52:00,-6.0,-11.0,-100.00,WNW,286,1.0,2.0,78,0.00,,,0.00,0.000000,,2013-03-04 09:52:00,
2013-03-04 04:01:00,-6.0,-11.0,-100.00,WNW,286,1.0,2.0,78,0.00,,,0.00,0.000000,,2013-03-04 10:01:00,
2013-03-04 04:11:00,-6.0,-11.0,-100.00,WNW,286,1.0,2.0,78,0.00,,,0.00,0.000000,,2013-03-04 10:11:00,
2013-03-04 04:32:00,-7.0,-12.0,-100.00,West,281,1.0,2.0,78,0.00,,,0.00,0.000000,,2013-03-04 10:32:00,
2013-03-04 04:42:00,-7.0,-12.0,-100.00,West,281,1.0,2.0,78,0.00,,,0.00,0.000000,,2013-03-04 10:42:00,
2013-03-04 04:52:00,-7.0,-12.0,-100.00,West,281,1.0,2.0,78,0.00,,,0.00,0.000000,,2013-03-04 10:52:00,
2013-03-04 05:02:00,-7.0,-12.0,-100.00,West,281,1.0,2.0,78,0.00,,,0.00,0.000000,,2013-03-04 11:02:00,
2013-03-04 05:11:00,-7.0,-12.0,-100.00,West,281,1.0,2.0,78,0.00,,,0.00,0.000000,,2013-03-04 11:11:00,
2013-03-04 05:32:00,-7.0,-12.0,-100.00,WNW,298,0.0,2.0,79,0.00,,,0.00,0.000000,,2013-03-04 11:32:00,
2013-03-04 05:42:00,-7.0,-12.0,-100.00,WNW,298,0.0,2.0,79,0.00,,,0.00,0.000000,,2013-03-04 11:42:00,
2013-03-04 05:52:00,-7.0,-12.0,-100.00,WNW,298,0.0,2.0,79,0.00,,,0.00,0.000000,,2013-03-04 11:52:00,
2013-03-04 06:01:00,-7.0,-12.0,-100.00,WNW,298,0.0,2.0,79,0.00,,,0.00,0.000000,,2013-03-04 12:01:00,
2013-03-04 06:11:00,-7.0,-12.0,-100.00,WNW,298,0.0,2.0,79,0.00,,,0.00,0.000000,,2013-03-04 12:11:00,
2013-03-04 06:32:00,-7.0,-12.0,-100.00,WNW,285,0.0,0.0,78,0.00,,,0.00,0.000000,,2013-03-04 12:32:00,
2013-03-04 06:42:00,-7.0,-12.0,-100.00,WNW,285,0.0,0.0,78,0.00,,,0.00,0.000000,,2013-03-04 12:42:00,
2013-03-04 06:53:00,-7.0,-12.0,-100.00,WNW,285,0.0,0.0,78,0.00,,,0.00,0.000000,,2013-03-04 12:53:00,
2013-03-04 07:02:00,-7.0,-12.0,-100.00,WNW,285,0.0,0.0,78,0.00,,,0.00,0.000000,,2013-03-04 13:02:00,
2013-03-04 07:11:00,-7.0,-12.0,-100.00,WNW,285,0.0,0.0,78,0.00,,,0.00,0.000000,,2013-03-04 13:11:00,
2013-03-04 07:42:00,-5.0,-10.0,-100.00,WNW,298,0.0,0.0,79,0.00,,,0.00,18.000000,,2013-03-04 13:42:00,
2013-03-04 07:52:00,-5.0,-10.0,-100.00,WNW,298,0.0,0.0,79,0.00,,,0.00,18.000000,,2013-03-04 13:52:00,
2013-03-04 08:01:00,-5.0,-10.0,-100.00,WNW,298,0.0,0.0,79,0.00,,,0.00,18.000000,,2013-03-04 14:01:00,
2013-03-04 08:11:00,-5.0,-10.0,-100.00,WNW,298,0.0,0.0,79,0.00,,,0.00,18.000000,,2013-03-04 14:11:00,
2013-03-04 08:32:00,12.0,4.0,-100.00,WSW,239,0.0,0.0,68,0.00,,,0.00,194.000000,,2013-03-04 14:32:00,
2013-03-04 08:42:00,12.0,4.0,-100.00,WSW,239,0.0,0.0,68,0.00,,,0.00,194.000000,,2013-03-04 14:42:00,
2013-03-04 08:52:00,12.0,4.0,-100.00,WSW,239,0.0,0.0,68,0.00,,,0.00,194.000000,,2013-03-04 14:52:00,
2013-03-04 09:01:00,12.0,4.0,-100.00,WSW,239,0.0,0.0,68,0.00,,,0.00,194.000000,,2013-03-04 15:01:00,
2013-03-04 09:11:00,12.0,4.0,-100.00,WSW,239,0.0,0.0,68,0.00,,,0.00,194.000000,,2013-03-04 15:11:00,
2013-03-04 09:42:00,25.0,14.0,-100.00,East,79,4.0,8.0,63,0.00,,,0.00,359.000000,,2013-03-04 15:42:00,
2013-03-04 09:52:00,25.0,14.0,-100.00,East,79,4.0,8.0,63,0.00,,,0.00,359.000000,,2013-03-04 15:52:00,
2013-03-04 10:02:00,25.0,14.0,-100.00,East,79,4.0,8.0,63,0.00,,,0.00,359.000000,,2013-03-04 16:02:00,
2013-03-04 10:11:00,25.0,14.0,-100.00,East,79,4.0,8.0,63,0.00,,,0.00,359.000000,,2013-03-04 16:11:00,
2013-03-04 10:42:00,28.0,14.0,-100.00,East,80,5.0,10.0,55,0.00,,,0.00,516.000000,,2013-03-04 16:42:00,
2013-03-04 10:52:00,28.0,14.0,-100.00,East,80,5.0,10.0,55,0.00,,,0.00,516.000000,,2013-03-04 16:52:00,
2013-03-04 11:02:00,28.0,14.0,-100.00,East,80,5.0,10.0,55,0.00,,,0.00,516.000000,,2013-03-04 17:02:00,
2013-03-04 11:11:00,28.0,14.0,-100.00,East,80,5.0,10.0,55,0.00,,,0.00,516.000000,,2013-03-04 17:11:00,
2013-03-04 11:42:00,30.0,13.0,-100.00,NE,55,5.0,11.0,49,0.00,,,0.00,626.000000,,2013-03-04 17:42:00,
2013-03-04 11:52:00,30.0,13.0,-100.00,NE,55,5.0,11.0,49,0.00,,,0.00,626.000000,,2013-03-04 17:52:00,
2013-03-04 12:01:00,30.0,13.0,-100.00,NE,55,5.0,11.0,49,0.00,,,0.00,626.000000,,2013-03-04 18:01:00,
2013-03-04 12:11:00,30.0,13.0,-100.00,NE,55,5.0,11.0,49,0.00,,,0.00,626.000000,,2013-03-04 18:11:00,
2013-03-04 12:32:00,33.0,12.0,-100.00,ENE,67,5.0,13.0,42,0.00,,,0.00,668.000000,,2013-03-04 18:32:00,
2013-03-04 12:42:00,33.0,12.0,-100.00,ENE,67,5.0,13.0,42,0.00,,,0.00,668.000000,,2013-03-04 18:42:00,
2013-03-04 12:52:00,33.0,12.0,-100.00,ENE,67,5.0,13.0,42,0.00,,,0.00,668.000000,,2013-03-04 18:52:00,
2013-03-04 13:02:00,33.0,12.0,-100.00,ENE,67,5.0,13.0,42,0.00,,,0.00,668.000000,,2013-03-04 19:02:00,
2013-03-04 13:11:00,33.0,12.0,-100.00,ENE,67,5.0,13.0,42,0.00,,,0.00,668.000000,,2013-03-04 19:11:00,
2013-03-04 13:32:00,35.0,13.0,-100.00,ESE,105,5.0,11.0,40,0.00,,,0.00,678.000000,,2013-03-04 19:32:00,
2013-03-04 13:42:00,35.0,13.0,-100.00,ESE,105,5.0,11.0,40,0.00,,,0.00,678.000000,,2013-03-04 19:42:00,
2013-03-04 13:52:00,35.0,13.0,-100.00,ESE,105,5.0,11.0,40,0.00,,,0.00,678.000000,,2013-03-04 19:52:00,
2013-03-04 14:02:00,35.0,13.0,-100.00,ESE,105,5.0,11.0,40,0.00,,,0.00,678.000000,,2013-03-04 20:02:00,
2013-03-04 14:11:00,35.0,13.0,-100.00,ESE,105,5.0,11.0,40,0.00,,,0.00,678.000000,,2013-03-04 20:11:00,
2013-03-04 14:32:00,35.0,11.0,-100.00,East,83,5.0,11.0,36,0.00,,,0.00,602.000000,,2013-03-04 20:32:00,
2013-03-04 14:42:00,35.0,11.0,-100.00,East,83,5.0,11.0,36,0.00,,,0.00,602.000000,,2013-03-04 20:42:00,
2013-03-04 14:52:00,35.0,11.0,-100.00,East,83,5.0,11.0,36,0.00,,,0.00,602.000000,,2013-03-04 20:52:00,
2013-03-04 15:02:00,35.0,11.0,-100.00,East,83,5.0,11.0,36,0.00,,,0.00,602.000000,,2013-03-04 21:02:00,
2013-03-04 15:11:00,35.0,11.0,-100.00,East,83,5.0,11.0,36,0.00,,,0.00,602.000000,,2013-03-04 21:11:00,
2013-03-04 15:32:00,36.0,11.0,-100.00,ESE,104,5.0,11.0,35,0.00,,,0.00,439.000000,,2013-03-04 21:32:00,
2013-03-04 15:43:00,36.0,11.0,-100.00,ESE,104,5.0,11.0,35,0.00,,,0.00,439.000000,,2013-03-04 21:43:00,
2013-03-04 15:53:00,36.0,11.0,-100.00,ESE,104,5.0,11.0,35,0.00,,,0.00,439.000000,,2013-03-04 21:53:00,
2013-03-04 16:02:00,36.0,11.0,-100.00,ESE,104,5.0,11.0,35,0.00,,,0.00,439.000000,,2013-03-04 22:02:00,
2013-03-04 16:12:00,36.0,11.0,-100.00,ESE,104,5.0,11.0,35,0.00,,,0.00,439.000000,,2013-03-04 22:12:00,
2013-03-04 16:32:00,34.0,10.0,-100.00,East,97,4.0,12.0,36,0.00,,,0.00,287.000000,,2013-03-04 22:32:00,
2013-03-04 16:43:00,34.0,10.0,-100.00,East,97,4.0,12.0,36,0.00,,,0.00,287.000000,,2013-03-04 22:43:00,
2013-03-04 16:52:00,34.0,10.0,-100.00,East,97,4.0,12.0,36,0.00,,,0.00,287.000000,,2013-03-04 22:52:00,
2013-03-04 17:02:00,34.0,10.0,-100.00,East,97,4.0,12.0,36,0.00,,,0.00,287.000000,,2013-03-04 23:02:00,
2013-03-04 17:11:00,34.0,10.0,-100.00,East,97,4.0,12.0,36,0.00,,,0.00,287.000000,,2013-03-04 23:11:00,
2013-03-04 17:32:00,29.0,10.0,-100.00,ENE,70,4.0,10.0,45,0.00,,,0.00,85.000000,,2013-03-04 23:32:00,
2013-03-04 17:42:00,29.0,10.0,-100.00,ENE,70,4.0,10.0,45,0.00,,,0.00,85.000000,,2013-03-04 23:42:00,
2013-03-04 17:52:00,29.0,10.0,-100.00,ENE,70,4.0,10.0,45,0.00,,,0.00,85.000000,,2013-03-04 23:52:00,
2013-03-04 18:02:00,29.0,10.0,-100.00,ENE,70,4.0,10.0,45,0.00,,,0.00,85.000000,,2013-03-05 00:02:00,
2013-03-04 18:11:00,29.0,10.0,-100.00,ENE,70,4.0,10.0,45,0.00,,,0.00,85.000000,,2013-03-05 00:11:00,
2013-03-04 18:42:00,26.0,10.0,-100.00,ENE,59,5.0,10.0,50,0.00,,,0.00,7.000000,,2013-03-05 00:42:00,
2013-03-04 18:52:00,26.0,10.0,-100.00,ENE,59,5.0,10.0,50,0.00,,,0.00,7.000000,,2013-03-05 00:52:00,
2013-03-04 19:01:00,26.0,10.0,-100.00,ENE,59,5.0,10.0,50,0.00,,,0.00,7.000000,,2013-03-05 01:01:00,
2013-03-04 19:12:00,26.0,10.0,-100.00,ENE,59,5.0,10.0,50,0.00,,,0.00,7.000000,,2013-03-05 01:12:00,
2013-03-04 20:42:00,21.0,9.0,-100.00,ENE,58,5.0,12.0,60,-99.99,,,0.00,0.000000,,2013-03-05 02:42:00,
2013-03-04 20:52:00,21.0,9.0,-100.00,ENE,58,5.0,12.0,60,-99.99,,,0.00,0.000000,,2013-03-05 02:52:00,
2013-03-04 21:02:00,21.0,9.0,-100.00,ENE,58,5.0,12.0,60,-99.99,,,0.00,0.000000,,2013-03-05 03:02:00,
2013-03-04 21:12:00,21.0,9.0,-100.00,ENE,58,5.0,12.0,60,-99.99,,,0.00,0.000000,,2013-03-05 03:12:00,
2013-03-04 21:32:00,19.0,12.0,-100.00,ENE,63,4.0,10.0,74,0.00,,,0.00,0.000000,,2013-03-05 03:32:00,
2013-03-04 21:42:00,19.0,12.0,-100.00,ENE,63,4.0,10.0,74,0.00,,,0.00,0.000000,,2013-03-05 03:42:00,
2013-03-04 21:52:00,19.0,12.0,-100.00,ENE,63,4.0,10.0,74,0.00,,,0.00,0.000000,,2013-03-05 03:52:00,
2013-03-04 22:02:00,19.0,12.0,-100.00,ENE,63,4.0,10.0,74,0.00,,,0.00,0.000000,,2013-03-05 04:02:00,
2013-03-04 22:11:00,19.0,12.0,-100.00,ENE,63,4.0,10.0,74,0.00,,,0.00,0.000000,,2013-03-05 04:11:00,
2013-03-04 22:32:00,16.0,11.0,-100.00,ENE,73,0.0,8.0,82,0.00,,,0.00,0.000000,,2013-03-05 04:32:00,
2013-03-04 22:42:00,16.0,11.0,-100.00,ENE,73,0.0,8.0,82,0.00,,,0.00,0.000000,,2013-03-05 04:42:00,
2013-03-04 22:52:00,16.0,11.0,-100.00,ENE,73,0.0,8.0,82,0.00,,,0.00,0.000000,,2013-03-05 04:52:00,
2013-03-04 23:02:00,16.0,11.0,-100.00,ENE,73,0.0,8.0,82,0.00,,,0.00,0.000000,,2013-03-05 05:02:00,
2013-03-04 23:12:00,16.0,11.0,-100.00,ENE,73,0.0,8.0,82,0.00,,,0.00,0.000000,,2013-03-05 05:12:00,
2013-03-04 23:32:00,12.0,9.0,-100.00,NE,40,0.0,2.0,88,0.00,,,0.00,0.000000,,2013-03-05 05:32:00,
2013-03-04 23:42:00,12.0,9.0,-100.00,NE,40,0.0,2.0,88,0.00,,,0.00,0.000000,,2013-03-05 05:42:00,
2013-03-04 23:52:00,12.0,9.0,-100.00,NE,40,0.0,2.0,88,0.00,,,0.00,0.000000,,2013-03-05 05:52:00,